Aérodrome :
LOGIN :

S'inscrire | Disclaimer

   EN    FR    IT 

 










Légende :    VFR   VFR Marginal   IFR   IFR Intensif   IFR Très Intensif
Visi : 
Plafond : 
>= 8 km
>= 3000ft
5 à 8 km
1000 à 3000 ft
1500m à 5 km
500 à 1000 ft
800 à 1500m
200 à 500 ft
< 800m
< 200 ft
Symboles :   Orages  Brouillard  Fortes neiges  Fortes précipitations  Vent > 20 kt
SIGMETs :   Divers  Orages  Givrage  Turbulence  Onde Orograph.  Cendres Volcan.







- Altitude de l'aérodrome : 63 ft
- Code IATA : BZM


EHWO - Woensdrecht Airbase

DERNIER METAR :
  • 161525Z AUTO 26014KT 230V290 9999 SCT053 BKN058 BKN064 06/02 Q0994 BLU

METARs EXPIRÉS :
  • 161455Z AUTO 27010KT 230V310 9999 FEW016CB OVC031 06/02 Q0994 BLU
  • 161427Z AUTO 27018G28KT 250V360 9999 FEW021CB BKN037 BKN046 07/01 Q0994 BLU
  • 161355Z AUTO 26017KT 240V300 9999 -UP BKN027 BKN031 BKN048 07/03 Q0994 BLU 27018G28KT 9999 SCT028 BKN040 TEMPO 28024G34KT SHRAGS FEW011 SCT020CB BKN028
  • 161325Z AUTO 26018KT 230V320 9999 FEW025 SCT029 BKN036 07/03 Q0994 BLU 27018G28KT 9999 SCT028 BKN040 TEMPO 28024G34KT SHRAGS FEW011 SCT020CB BKN028
  • 161314Z AUTO 26016KT 230V320 9999 -RA SCT025 BKN028 BKN032 06/02 Q0994 BLU 27018G28KT 9999 SCT028 BKN040 TEMPO 28024G34KT SHRAGS FEW011 SCT020CB BKN028
  • 161255Z AUTO 27015KT 230V310 9999 SCT026/// BKN031/// BKN037/// 07/03 Q0994 BLU 27018G28KT 9999 SCT028 BKN040 TEMPO 28024G34KT SHRA FEW011 SCT018CB BKN025

TAF TAF EHWO
Valide du 16 à 10h jusqu'au 16 à 22h UTC


160916Z 1610/1622 27017G27KT 9999 SCT020 BKN050
TEMPO 1610/1622 25020G32KT 4500 SHRA SCT010 SCT018CB BKN022
PROB30
TEMPO 1613/1622 26015G35KT 3000 SHRASN TSRAGS SCT008 BKN015CB
Pas de NOTAMs connus pour ce terrain.



MET'MAP, la Météo Aéronautique d'un coup d'oeil ! - Copyright ORBIFLY Décembre 2007 - Disclaimer

ORBIFLY MET'MAP TEAM :

Programmation & Développement : Alexandra Zaïnal
Conception & Développement : Baudouin d'Aumeries
Co-Programmation & Développement : Marc-Olivier Méhu
Soutien technique & logistique : Manuel Goepfert

Contact : metmap@orbifly.com




SOURCES & CREDITS :

   NOAA